NKS880 KBWI-TJSJ
Flight info
| Callsign | NKS880 |
|---|---|
| Flight time | N/A |
| Altitude | 38000 |
| Route | CONLE5 SCOOB DCT EARZZ DCT SKARP Y313 IDOLS DCT CANIT/N0446F390 DCT NUCAR Y355 PLING RTE7 SAALR |
| Aircraft | A320/M-SDE3FGHIRWY/LB1 |
Departure
| Time | N/A |
|---|---|
| Airport | Baltimore/Washington International Thurgood Marshall Airport (KBWI) |
Arrival
| Time | 2026-04-29 00:03 |
|---|---|
| Airport | Luis Munoz Marin International Airport (TJSJ) |
| Time | Latitude | Longitude | Altitude | Speed | Heading |
|---|---|---|---|---|---|
| 2026-04-28 21:51 | 29.90296 | -78.35753 | 38117 ft | 447 kts | 193° |
| 2026-04-28 21:51 | 29.87241 | -78.36366 | 38124 ft | 448 kts | 193° |
| 2026-04-28 21:52 | 29.81057 | -78.37611 | 38118 ft | 448 kts | 193° |
| 2026-04-28 21:52 | 29.74921 | -78.38843 | 38122 ft | 448 kts | 193° |
| 2026-04-28 21:53 | 29.68698 | -78.40091 | 38114 ft | 449 kts | 193° |
| 2026-04-28 21:53 | 29.62459 | -78.41126 | 38110 ft | 452 kts | 187° |
| 2026-04-28 21:54 | 29.56161 | -78.40827 | 38109 ft | 457 kts | 174° |
| 2026-04-28 21:54 | 29.49899 | -78.38965 | 38122 ft | 461 kts | 161° |
| 2026-04-28 21:55 | 29.44076 | -78.35892 | 38111 ft | 463 kts | 156° |
| 2026-04-28 21:55 | 29.38227 | -78.32575 | 38114 ft | 462 kts | 156° |
| 2026-04-28 21:56 | 29.32392 | -78.29291 | 38110 ft | 463 kts | 156° |
| 2026-04-28 21:56 | 29.26598 | -78.26056 | 38102 ft | 463 kts | 156° |
| 2026-04-28 21:57 | 29.20775 | -78.22812 | 38109 ft | 464 kts | 156° |
| 2026-04-28 21:57 | 29.14933 | -78.19564 | 38105 ft | 464 kts | 156° |
| 2026-04-28 21:58 | 29.09130 | -78.16343 | 38108 ft | 465 kts | 156° |
| 2026-04-28 21:58 | 29.03283 | -78.13100 | 38101 ft | 465 kts | 156° |
| 2026-04-28 21:59 | 28.97443 | -78.09866 | 38101 ft | 465 kts | 156° |
| 2026-04-28 22:00 | 28.88670 | -78.05015 | 38397 ft | 469 kts | 156° |
| 2026-04-28 22:00 | 28.85731 | -78.03391 | 38619 ft | 469 kts | 156° |
| 2026-04-28 22:00 | 28.82792 | -78.01768 | 38822 ft | 470 kts | 156° |
| 2026-04-28 22:00 | 28.79835 | -78.00137 | 39020 ft | 470 kts | 156° |
| 2026-04-28 22:01 | 28.76880 | -77.98509 | 39095 ft | 471 kts | 156° |
| 2026-04-28 22:01 | 28.70959 | -77.95250 | 39103 ft | 471 kts | 156° |
| 2026-04-28 22:02 | 28.65077 | -77.92014 | 39107 ft | 472 kts | 156° |
| 2026-04-28 22:02 | 28.59160 | -77.88764 | 39099 ft | 472 kts | 156° |
| 2026-04-28 22:03 | 28.53234 | -77.85513 | 39106 ft | 472 kts | 156° |
| 2026-04-28 22:03 | 28.47309 | -77.82265 | 39100 ft | 473 kts | 156° |
| 2026-04-28 22:04 | 28.41368 | -77.79013 | 39100 ft | 474 kts | 156° |
| 2026-04-28 22:04 | 28.35388 | -77.75742 | 39102 ft | 473 kts | 156° |
| 2026-04-28 22:05 | 28.29465 | -77.72504 | 39103 ft | 474 kts | 156° |
| 2026-04-28 22:05 | 28.23479 | -77.69237 | 39103 ft | 474 kts | 156° |
| 2026-04-28 22:06 | 28.17608 | -77.65853 | 39106 ft | 476 kts | 152° |
| 2026-04-28 22:06 | 28.12088 | -77.61732 | 39100 ft | 478 kts | 144° |
| 2026-04-28 22:07 | 28.07022 | -77.56805 | 39107 ft | 480 kts | 136° |
| 2026-04-28 22:07 | 28.02401 | -77.51384 | 39101 ft | 480 kts | 134° |
| 2026-04-28 22:08 | 27.97793 | -77.45906 | 39091 ft | 481 kts | 134° |
| 2026-04-28 22:08 | 27.93162 | -77.40434 | 39107 ft | 481 kts | 134° |
| 2026-04-28 22:09 | 27.88527 | -77.34975 | 39099 ft | 481 kts | 135° |
| 2026-04-28 22:09 | 27.83881 | -77.29516 | 39098 ft | 482 kts | 135° |
| 2026-04-28 22:10 | 27.79189 | -77.24011 | 39100 ft | 482 kts | 135° |
| 2026-04-28 22:10 | 27.74533 | -77.18559 | 39096 ft | 482 kts | 135° |
| 2026-04-28 22:11 | 27.69873 | -77.13106 | 39102 ft | 482 kts | 135° |
| 2026-04-28 22:11 | 27.65194 | -77.07639 | 39088 ft | 482 kts | 135° |
| 2026-04-28 22:12 | 27.60559 | -77.02227 | 39089 ft | 482 kts | 135° |
| 2026-04-28 22:12 | 27.55887 | -76.96780 | 39094 ft | 483 kts | 135° |
| 2026-04-28 22:13 | 27.51210 | -76.91338 | 39103 ft | 482 kts | 135° |
| 2026-04-28 22:13 | 27.46535 | -76.85902 | 39099 ft | 483 kts | 135° |
| 2026-04-28 22:14 | 27.41882 | -76.80502 | 39084 ft | 484 kts | 135° |
| 2026-04-28 22:14 | 27.37180 | -76.75050 | 39091 ft | 483 kts | 135° |
| 2026-04-28 22:15 | 27.32490 | -76.69617 | 39091 ft | 483 kts | 135° |
| 2026-04-28 22:15 | 27.27818 | -76.64211 | 39090 ft | 483 kts | 135° |
| 2026-04-28 22:16 | 27.23128 | -76.58794 | 39092 ft | 483 kts | 135° |
| 2026-04-28 22:16 | 27.18417 | -76.53355 | 39094 ft | 484 kts | 135° |
| 2026-04-28 22:17 | 27.13707 | -76.47926 | 39088 ft | 485 kts | 135° |
| 2026-04-28 22:17 | 27.08987 | -76.42487 | 39083 ft | 485 kts | 135° |
| 2026-04-28 22:18 | 27.04267 | -76.37042 | 39081 ft | 485 kts | 135° |
| 2026-04-28 22:18 | 26.99609 | -76.31578 | 39084 ft | 485 kts | 135° |
| 2026-04-28 22:19 | 26.94937 | -76.26093 | 39088 ft | 485 kts | 135° |
| 2026-04-28 22:19 | 26.90261 | -76.20609 | 39091 ft | 485 kts | 135° |
| 2026-04-28 22:20 | 26.85572 | -76.15121 | 39089 ft | 486 kts | 135° |
| 2026-04-28 22:20 | 26.80895 | -76.09653 | 39087 ft | 486 kts | 135° |
| 2026-04-28 22:21 | 26.76184 | -76.04156 | 39086 ft | 486 kts | 135° |
| 2026-04-28 22:21 | 26.71481 | -75.98675 | 39086 ft | 487 kts | 135° |
| 2026-04-28 22:22 | 26.66777 | -75.93195 | 39089 ft | 487 kts | 135° |
| 2026-04-28 22:22 | 26.62097 | -75.87755 | 39077 ft | 486 kts | 135° |
| 2026-04-28 22:23 | 26.57395 | -75.82297 | 39090 ft | 486 kts | 135° |
| 2026-04-28 22:23 | 26.52734 | -75.76892 | 39093 ft | 486 kts | 135° |
| 2026-04-28 22:24 | 26.48038 | -75.71448 | 39087 ft | 486 kts | 136° |
| 2026-04-28 22:24 | 26.43329 | -75.66001 | 39095 ft | 487 kts | 135° |
| 2026-04-28 22:25 | 26.38620 | -75.60561 | 39102 ft | 486 kts | 136° |
| 2026-04-28 22:25 | 26.33913 | -75.55128 | 39088 ft | 486 kts | 136° |
| 2026-04-28 22:26 | 26.29206 | -75.49702 | 39091 ft | 486 kts | 136° |
| 2026-04-28 22:26 | 26.24468 | -75.44250 | 39090 ft | 486 kts | 136° |
| 2026-04-28 22:27 | 26.19761 | -75.38839 | 39099 ft | 486 kts | 136° |
| 2026-04-28 22:27 | 26.15037 | -75.33410 | 39089 ft | 486 kts | 136° |
| 2026-04-28 22:28 | 26.10323 | -75.28005 | 39084 ft | 486 kts | 136° |
| 2026-04-28 22:28 | 26.05571 | -75.22562 | 39085 ft | 486 kts | 136° |
| 2026-04-28 22:29 | 26.00855 | -75.17170 | 39086 ft | 487 kts | 136° |
| 2026-04-28 22:29 | 25.96131 | -75.11772 | 39095 ft | 486 kts | 136° |
| 2026-04-28 22:30 | 25.91396 | -75.06367 | 39094 ft | 486 kts | 137° |
| 2026-04-28 22:30 | 25.86673 | -75.00982 | 39092 ft | 486 kts | 136° |
| 2026-04-28 22:31 | 25.81929 | -74.95579 | 39092 ft | 486 kts | 137° |
| 2026-04-28 22:31 | 25.77189 | -74.90189 | 39088 ft | 487 kts | 137° |
| 2026-04-28 22:32 | 25.72458 | -74.84823 | 39091 ft | 488 kts | 137° |
| 2026-04-28 22:32 | 25.67681 | -74.79399 | 39091 ft | 488 kts | 137° |
| 2026-04-28 22:33 | 25.62928 | -74.74012 | 39094 ft | 487 kts | 137° |
| 2026-04-28 22:33 | 25.58193 | -74.68656 | 39089 ft | 486 kts | 137° |
| 2026-04-28 22:34 | 25.53417 | -74.63258 | 39086 ft | 486 kts | 137° |
| 2026-04-28 22:34 | 25.48696 | -74.57930 | 39085 ft | 487 kts | 137° |
| 2026-04-28 22:35 | 25.43945 | -74.52576 | 39085 ft | 488 kts | 137° |
| 2026-04-28 22:35 | 25.39158 | -74.47182 | 39092 ft | 488 kts | 137° |
| 2026-04-28 22:36 | 25.34394 | -74.41821 | 39083 ft | 487 kts | 138° |
| 2026-04-28 22:36 | 25.29664 | -74.36508 | 39089 ft | 487 kts | 137° |
| 2026-04-28 22:37 | 25.24983 | -74.31255 | 39077 ft | 487 kts | 139° |
| 2026-04-28 22:37 | 25.20211 | -74.25909 | 39092 ft | 488 kts | 138° |
| 2026-04-28 22:38 | 25.15430 | -74.20556 | 39080 ft | 487 kts | 139° |
| 2026-04-28 22:38 | 25.10660 | -74.15223 | 39091 ft | 487 kts | 138° |
| 2026-04-28 22:39 | 25.05889 | -74.09892 | 39079 ft | 488 kts | 139° |
| 2026-04-28 22:39 | 25.01152 | -74.04607 | 39082 ft | 487 kts | 139° |
| 2026-04-28 22:40 | 24.96344 | -73.99249 | 39090 ft | 488 kts | 139° |
| 2026-04-28 22:40 | 24.91584 | -73.93950 | 39090 ft | 487 kts | 139° |
| 2026-04-28 22:41 | 24.86782 | -73.88618 | 39085 ft | 487 kts | 139° |
| 2026-04-28 22:41 | 24.82021 | -73.83328 | 39083 ft | 487 kts | 139° |
| 2026-04-28 22:42 | 24.77246 | -73.78027 | 39083 ft | 488 kts | 139° |
| 2026-04-28 22:42 | 24.72458 | -73.72719 | 39085 ft | 488 kts | 139° |
| 2026-04-28 22:43 | 24.67668 | -73.67416 | 39082 ft | 488 kts | 139° |
| 2026-04-28 22:43 | 24.62833 | -73.62065 | 39080 ft | 488 kts | 139° |
| 2026-04-28 22:44 | 24.58166 | -73.56615 | 39078 ft | 491 kts | 134° |
| 2026-04-28 22:44 | 24.54104 | -73.50600 | 39082 ft | 494 kts | 126° |
| 2026-04-28 22:45 | 24.50565 | -73.44124 | 39083 ft | 495 kts | 123° |
| 2026-04-28 22:45 | 24.47064 | -73.37574 | 39078 ft | 495 kts | 123° |
| 2026-04-28 22:46 | 24.43563 | -73.31078 | 39078 ft | 495 kts | 124° |
| 2026-04-28 22:46 | 24.40065 | -73.24617 | 39075 ft | 495 kts | 124° |
| 2026-04-28 22:47 | 24.36514 | -73.18073 | 39074 ft | 495 kts | 124° |
| 2026-04-28 22:47 | 24.32994 | -73.11594 | 39076 ft | 494 kts | 124° |
| 2026-04-28 22:48 | 24.29486 | -73.05146 | 39073 ft | 493 kts | 124° |
| 2026-04-28 22:48 | 24.25986 | -72.98725 | 39075 ft | 493 kts | 124° |
| 2026-04-28 22:49 | 24.22462 | -72.92269 | 39075 ft | 494 kts | 124° |
| 2026-04-28 22:49 | 24.18941 | -72.85819 | 39072 ft | 494 kts | 124° |
| 2026-04-28 22:50 | 24.15405 | -72.79349 | 39071 ft | 493 kts | 124° |
| 2026-04-28 22:50 | 24.11871 | -72.72900 | 39071 ft | 494 kts | 124° |
| 2026-04-28 22:51 | 24.08324 | -72.66430 | 39073 ft | 494 kts | 124° |
| 2026-04-28 22:51 | 24.04792 | -72.59999 | 39073 ft | 494 kts | 124° |
| 2026-04-28 22:52 | 24.01268 | -72.53588 | 39072 ft | 494 kts | 125° |
| 2026-04-28 22:52 | 23.97712 | -72.47121 | 39070 ft | 494 kts | 125° |
| 2026-04-28 22:53 | 23.94184 | -72.40719 | 39073 ft | 493 kts | 124° |
| 2026-04-28 22:53 | 23.90655 | -72.34322 | 39065 ft | 493 kts | 125° |
| 2026-04-28 22:54 | 23.87118 | -72.27940 | 39069 ft | 493 kts | 126° |
| 2026-04-28 22:54 | 23.83577 | -72.21550 | 39067 ft | 492 kts | 125° |
| 2026-04-28 22:55 | 23.80026 | -72.15147 | 39067 ft | 493 kts | 126° |
| 2026-04-28 22:55 | 23.76487 | -72.08765 | 39063 ft | 491 kts | 126° |
| 2026-04-28 22:56 | 23.72936 | -72.02374 | 39064 ft | 491 kts | 126° |
| 2026-04-28 22:56 | 23.69400 | -71.96018 | 39065 ft | 491 kts | 126° |
| 2026-04-28 22:57 | 23.65852 | -71.89639 | 39061 ft | 492 kts | 125° |
| 2026-04-28 22:57 | 23.62305 | -71.83278 | 39062 ft | 492 kts | 126° |
| 2026-04-28 22:58 | 23.58457 | -71.77177 | 39062 ft | 487 kts | 131° |
| 2026-04-28 22:58 | 23.54380 | -71.71313 | 39062 ft | 487 kts | 132° |
| 2026-04-28 22:59 | 23.50297 | -71.65448 | 39067 ft | 488 kts | 132° |
| 2026-04-28 22:59 | 23.46192 | -71.59541 | 39064 ft | 487 kts | 132° |
| 2026-04-28 23:00 | 23.42102 | -71.53654 | 39065 ft | 487 kts | 132° |
| 2026-04-28 23:00 | 23.38011 | -71.47770 | 39065 ft | 487 kts | 132° |
| 2026-04-28 23:01 | 23.33952 | -71.41939 | 39062 ft | 487 kts | 132° |
| 2026-04-28 23:01 | 23.29857 | -71.36063 | 39064 ft | 487 kts | 132° |
| 2026-04-28 23:02 | 23.25765 | -71.30196 | 39063 ft | 486 kts | 133° |
| 2026-04-28 23:02 | 23.21672 | -71.24335 | 39070 ft | 486 kts | 133° |
| 2026-04-28 23:03 | 23.17596 | -71.18506 | 39070 ft | 486 kts | 133° |
| 2026-04-28 23:03 | 23.13511 | -71.12669 | 39069 ft | 486 kts | 133° |
| 2026-04-28 23:04 | 23.09416 | -71.06825 | 39068 ft | 486 kts | 133° |
| 2026-04-28 23:04 | 23.03293 | -70.98096 | 39070 ft | 486 kts | 133° |
| 2026-04-28 23:05 | 22.99185 | -70.92248 | 39065 ft | 486 kts | 133° |
| 2026-04-28 23:05 | 22.95098 | -70.86433 | 39068 ft | 486 kts | 133° |
| 2026-04-28 23:06 | 22.91005 | -70.80624 | 39068 ft | 485 kts | 133° |
| 2026-04-28 23:06 | 22.86881 | -70.74807 | 39066 ft | 485 kts | 133° |
| 2026-04-28 23:07 | 22.82775 | -70.69013 | 39067 ft | 485 kts | 133° |
| 2026-04-28 23:07 | 22.78673 | -70.63225 | 39064 ft | 484 kts | 133° |
| 2026-04-28 23:08 | 22.74571 | -70.57443 | 39065 ft | 484 kts | 133° |
| 2026-04-28 23:08 | 22.70483 | -70.51686 | 39061 ft | 484 kts | 133° |
| 2026-04-28 23:09 | 22.66369 | -70.45898 | 39062 ft | 484 kts | 133° |
| 2026-04-28 23:09 | 22.62294 | -70.40170 | 39065 ft | 484 kts | 133° |
| 2026-04-28 23:10 | 22.58190 | -70.34409 | 39057 ft | 484 kts | 134° |
| 2026-04-28 23:10 | 22.54078 | -70.28640 | 39060 ft | 483 kts | 134° |
| 2026-04-28 23:11 | 22.49972 | -70.22887 | 39062 ft | 483 kts | 134° |
| 2026-04-28 23:11 | 22.45869 | -70.17142 | 39060 ft | 483 kts | 134° |
| 2026-04-28 23:12 | 22.41781 | -70.11427 | 39056 ft | 484 kts | 134° |
| 2026-04-28 23:12 | 22.37667 | -70.05677 | 39058 ft | 483 kts | 134° |
| 2026-04-28 23:13 | 22.33553 | -69.99934 | 39055 ft | 482 kts | 134° |
| 2026-04-28 23:13 | 22.29458 | -69.94232 | 39054 ft | 482 kts | 134° |
| 2026-04-28 23:14 | 22.25334 | -69.88493 | 39053 ft | 482 kts | 134° |
| 2026-04-28 23:14 | 22.21231 | -69.82800 | 39052 ft | 482 kts | 134° |
| 2026-04-28 23:15 | 22.17112 | -69.77097 | 39054 ft | 482 kts | 134° |
| 2026-04-28 23:15 | 22.12969 | -69.71357 | 39053 ft | 482 kts | 134° |
| 2026-04-28 23:16 | 22.08862 | -69.65667 | 39058 ft | 482 kts | 134° |
| 2026-04-28 23:16 | 22.04760 | -69.59988 | 39062 ft | 482 kts | 134° |
| 2026-04-28 23:17 | 22.00623 | -69.54271 | 39067 ft | 482 kts | 134° |
| 2026-04-28 23:17 | 21.96503 | -69.48582 | 39070 ft | 482 kts | 134° |
| 2026-04-28 23:18 | 21.92384 | -69.42899 | 39065 ft | 482 kts | 134° |
| 2026-04-28 23:18 | 21.88254 | -69.37209 | 39065 ft | 482 kts | 134° |
| 2026-04-28 23:19 | 21.84102 | -69.31490 | 39064 ft | 482 kts | 134° |
| 2026-04-28 23:19 | 21.79978 | -69.25816 | 39062 ft | 482 kts | 134° |
| 2026-04-28 23:20 | 21.75862 | -69.20163 | 39063 ft | 482 kts | 135° |
| 2026-04-28 23:20 | 21.71715 | -69.14474 | 39055 ft | 482 kts | 135° |
| 2026-04-28 23:21 | 21.67592 | -69.08823 | 39057 ft | 482 kts | 134° |
| 2026-04-28 23:21 | 21.63438 | -69.03133 | 39055 ft | 482 kts | 134° |
| 2026-04-28 23:22 | 21.59999 | -68.98427 | 39052 ft | 482 kts | 134° |
| 2026-04-28 23:22 | 21.55168 | -68.91825 | 39051 ft | 481 kts | 134° |
| 2026-04-28 23:23 | 21.51006 | -68.86141 | 39049 ft | 481 kts | 134° |
| 2026-04-28 23:23 | 21.46869 | -68.80499 | 39053 ft | 481 kts | 134° |
| 2026-04-28 23:24 | 21.42736 | -68.74867 | 39056 ft | 480 kts | 134° |
| 2026-04-28 23:24 | 21.38619 | -68.69266 | 39053 ft | 480 kts | 134° |
| 2026-04-28 23:25 | 21.34470 | -68.63623 | 39055 ft | 480 kts | 135° |
| 2026-04-28 23:25 | 21.30348 | -68.58025 | 39052 ft | 480 kts | 134° |
| 2026-04-28 23:26 | 21.26205 | -68.52401 | 39042 ft | 479 kts | 134° |
| 2026-04-28 23:26 | 21.22067 | -68.46790 | 39045 ft | 479 kts | 134° |
| 2026-04-28 23:27 | 21.17947 | -68.41209 | 39047 ft | 479 kts | 135° |
| 2026-04-28 23:27 | 21.13802 | -68.35603 | 39047 ft | 479 kts | 134° |
| 2026-04-28 23:28 | 21.09684 | -68.30035 | 39053 ft | 478 kts | 135° |
| 2026-04-28 23:28 | 21.05529 | -68.24424 | 39056 ft | 478 kts | 135° |
| 2026-04-28 23:29 | 21.01391 | -68.18840 | 39052 ft | 477 kts | 135° |
| 2026-04-28 23:29 | 20.97254 | -68.13263 | 39049 ft | 477 kts | 135° |
| 2026-04-28 23:30 | 20.93138 | -68.07716 | 39054 ft | 478 kts | 135° |
| 2026-04-28 23:30 | 20.88996 | -68.02138 | 39054 ft | 477 kts | 135° |
| 2026-04-28 23:31 | 20.84865 | -67.96567 | 39048 ft | 476 kts | 134° |
| 2026-04-28 23:31 | 20.80803 | -67.90993 | 39045 ft | 476 kts | 134° |
| 2026-04-28 23:32 | 20.76746 | -67.85407 | 39043 ft | 476 kts | 134° |
| 2026-04-28 23:32 | 20.72691 | -67.79834 | 39044 ft | 475 kts | 134° |
| 2026-04-28 23:33 | 20.68651 | -67.74287 | 39045 ft | 474 kts | 134° |
| 2026-04-28 23:33 | 20.64599 | -67.68735 | 39042 ft | 474 kts | 134° |
| 2026-04-28 23:34 | 20.60558 | -67.63200 | 39038 ft | 473 kts | 134° |
| 2026-04-28 23:34 | 20.56502 | -67.57647 | 39042 ft | 473 kts | 134° |
| 2026-04-28 23:35 | 20.52458 | -67.52117 | 39038 ft | 472 kts | 134° |
| 2026-04-28 23:35 | 20.48412 | -67.46590 | 39041 ft | 472 kts | 134° |
| 2026-04-28 23:36 | 20.44398 | -67.41108 | 39039 ft | 472 kts | 134° |
| 2026-04-28 23:36 | 20.40348 | -67.35584 | 39039 ft | 471 kts | 134° |
| 2026-04-28 23:37 | 20.36310 | -67.30096 | 39038 ft | 472 kts | 134° |
| 2026-04-28 23:37 | 20.32265 | -67.24603 | 39038 ft | 471 kts | 134° |
| 2026-04-28 23:38 | 20.28221 | -67.19111 | 39038 ft | 471 kts | 134° |
| 2026-04-28 23:38 | 20.24199 | -67.13647 | 39037 ft | 470 kts | 134° |
| 2026-04-28 23:39 | 20.20163 | -67.08168 | 39033 ft | 469 kts | 134° |
| 2026-04-28 23:39 | 20.16139 | -67.02713 | 39035 ft | 469 kts | 134° |
| 2026-04-28 23:40 | 20.12102 | -66.97245 | 39032 ft | 469 kts | 134° |
| 2026-04-28 23:40 | 20.08073 | -66.91783 | 39030 ft | 470 kts | 134° |
| 2026-04-28 23:41 | 20.04027 | -66.86335 | 39032 ft | 468 kts | 135° |
| 2026-04-28 23:41 | 19.99584 | -66.81449 | 38496 ft | 449 kts | 145° |
| 2026-04-28 23:42 | 19.97189 | -66.79379 | 37048 ft | 449 kts | 150° |
| 2026-04-28 23:42 | 19.94601 | -66.77511 | 35037 ft | 456 kts | 156° |
| 2026-04-28 23:42 | 19.91844 | -66.75867 | 32906 ft | 460 kts | 161° |
| 2026-04-28 23:42 | 19.89008 | -66.74371 | 31297 ft | 458 kts | 161° |
| 2026-04-28 23:43 | 19.86227 | -66.72920 | 30254 ft | 444 kts | 161° |
| 2026-04-28 23:43 | 19.83500 | -66.71488 | 29591 ft | 427 kts | 161° |
| 2026-04-28 23:43 | 19.80863 | -66.70103 | 28969 ft | 415 kts | 161° |
| 2026-04-28 23:43 | 19.78325 | -66.68767 | 28432 ft | 405 kts | 161° |
| 2026-04-28 23:44 | 19.75824 | -66.67458 | 27932 ft | 403 kts | 161° |
| 2026-04-28 23:44 | 19.73306 | -66.66139 | 27415 ft | 399 kts | 161° |
| 2026-04-28 23:44 | 19.70821 | -66.64835 | 26940 ft | 396 kts | 160° |
| 2026-04-28 23:44 | 19.68346 | -66.63536 | 26437 ft | 394 kts | 160° |
| 2026-04-28 23:45 | 19.65903 | -66.62253 | 25993 ft | 390 kts | 160° |
| 2026-04-28 23:45 | 19.63507 | -66.60990 | 25562 ft | 387 kts | 160° |
| 2026-04-28 23:45 | 19.61094 | -66.59720 | 25118 ft | 383 kts | 160° |
| 2026-04-28 23:45 | 19.58702 | -66.58464 | 24652 ft | 380 kts | 159° |
| 2026-04-28 23:46 | 19.56342 | -66.57224 | 24175 ft | 379 kts | 159° |
| 2026-04-28 23:46 | 19.54004 | -66.55997 | 23708 ft | 376 kts | 159° |
| 2026-04-28 23:46 | 19.51657 | -66.54762 | 23267 ft | 373 kts | 159° |
| 2026-04-28 23:46 | 19.49357 | -66.53554 | 22837 ft | 370 kts | 158° |
| 2026-04-28 23:47 | 19.47048 | -66.52343 | 22378 ft | 368 kts | 158° |
| 2026-04-28 23:47 | 19.44748 | -66.51135 | 21912 ft | 367 kts | 158° |
| 2026-04-28 23:47 | 19.42449 | -66.49929 | 21399 ft | 367 kts | 158° |
| 2026-04-28 23:47 | 19.40181 | -66.48740 | 20904 ft | 366 kts | 157° |
| 2026-04-28 23:48 | 19.37887 | -66.47537 | 20417 ft | 365 kts | 157° |
| 2026-04-28 23:48 | 19.35617 | -66.46348 | 19921 ft | 365 kts | 157° |
| 2026-04-28 23:48 | 19.33337 | -66.45152 | 19413 ft | 365 kts | 157° |
| 2026-04-28 23:48 | 19.31064 | -66.43961 | 18899 ft | 365 kts | 156° |
| 2026-04-28 23:49 | 19.28800 | -66.42775 | 18382 ft | 366 kts | 156° |
| 2026-04-28 23:49 | 19.26510 | -66.41576 | 17851 ft | 366 kts | 156° |
| 2026-04-28 23:49 | 19.24227 | -66.40380 | 17312 ft | 366 kts | 155° |
| 2026-04-28 23:49 | 19.21938 | -66.39181 | 16795 ft | 365 kts | 155° |
| 2026-04-28 23:50 | 19.19677 | -66.37994 | 16310 ft | 364 kts | 155° |
| 2026-04-28 23:50 | 19.17412 | -66.36807 | 15816 ft | 362 kts | 155° |
| 2026-04-28 23:50 | 19.15156 | -66.35628 | 15329 ft | 360 kts | 155° |
| 2026-04-28 23:50 | 19.12913 | -66.34468 | 14856 ft | 358 kts | 157° |
| 2026-04-28 23:51 | 19.10595 | -66.33550 | 14375 ft | 354 kts | 165° |
| 2026-04-28 23:51 | 19.08207 | -66.32953 | 13898 ft | 351 kts | 169° |
| 2026-04-28 23:51 | 19.05818 | -66.32468 | 13425 ft | 349 kts | 171° |
| 2026-04-28 23:51 | 19.03404 | -66.31992 | 12922 ft | 348 kts | 171° |
| 2026-04-28 23:52 | 19.01045 | -66.31530 | 12431 ft | 346 kts | 170° |
| 2026-04-28 23:52 | 18.98686 | -66.31063 | 11944 ft | 345 kts | 170° |
| 2026-04-28 23:52 | 18.96308 | -66.30588 | 11454 ft | 343 kts | 170° |
| 2026-04-28 23:52 | 18.93979 | -66.30120 | 10977 ft | 341 kts | 170° |
| 2026-04-28 23:53 | 18.91641 | -66.29649 | 10497 ft | 339 kts | 169° |
| 2026-04-28 23:53 | 18.89354 | -66.29190 | 10073 ft | 335 kts | 169° |
| 2026-04-28 23:53 | 18.87091 | -66.28734 | 9934 ft | 322 kts | 169° |
| 2026-04-28 23:53 | 18.84887 | -66.28289 | 9607 ft | 317 kts | 169° |
| 2026-04-28 23:54 | 18.82738 | -66.27856 | 9286 ft | 313 kts | 169° |
| 2026-04-28 23:54 | 18.80605 | -66.27427 | 8974 ft | 308 kts | 169° |
| 2026-04-28 23:54 | 18.78515 | -66.27006 | 8675 ft | 303 kts | 169° |
| 2026-04-28 23:54 | 18.76463 | -66.26593 | 8369 ft | 297 kts | 169° |
| 2026-04-28 23:55 | 18.74469 | -66.26192 | 7844 ft | 289 kts | 169° |
| 2026-04-28 23:55 | 18.72507 | -66.25798 | 7246 ft | 283 kts | 168° |
| 2026-04-28 23:55 | 18.70617 | -66.25417 | 6801 ft | 272 kts | 168° |
| 2026-04-28 23:55 | 18.68764 | -66.25045 | 6438 ft | 265 kts | 168° |
| 2026-04-28 23:56 | 18.66956 | -66.24680 | 6087 ft | 261 kts | 168° |
| 2026-04-28 23:56 | 18.65188 | -66.24324 | 5749 ft | 258 kts | 167° |
| 2026-04-28 23:56 | 18.63421 | -66.23968 | 5412 ft | 258 kts | 167° |
| 2026-04-28 23:56 | 18.61666 | -66.23613 | 5078 ft | 261 kts | 168° |
| 2026-04-28 23:57 | 18.59869 | -66.23250 | 4737 ft | 264 kts | 168° |
| 2026-04-28 23:57 | 18.58046 | -66.22884 | 4388 ft | 266 kts | 168° |
| 2026-04-28 23:57 | 18.56198 | -66.22513 | 4029 ft | 269 kts | 168° |
| 2026-04-28 23:57 | 18.54356 | -66.22145 | 3670 ft | 271 kts | 167° |
| 2026-04-28 23:58 | 18.52503 | -66.21772 | 3310 ft | 272 kts | 167° |
| 2026-04-28 23:58 | 18.50640 | -66.21398 | 2947 ft | 273 kts | 167° |
| 2026-04-28 23:58 | 18.48753 | -66.21020 | 2582 ft | 274 kts | 167° |
| 2026-04-28 23:58 | 18.46879 | -66.20644 | 2350 ft | 269 kts | 167° |
| 2026-04-28 23:59 | 18.45153 | -66.20029 | 2252 ft | 255 kts | 145° |
| 2026-04-28 23:59 | 18.43987 | -66.18723 | 2174 ft | 240 kts | 116° |
| 2026-04-28 23:59 | 18.43470 | -66.17132 | 2181 ft | 224 kts | 98° |
| 2026-04-28 23:59 | 18.43349 | -66.15538 | 2198 ft | 211 kts | 90° |
| 2026-04-29 00:00 | 18.43365 | -66.14028 | 2187 ft | 201 kts | 88° |
| 2026-04-29 00:00 | 18.43387 | -66.12597 | 2087 ft | 192 kts | 89° |
| 2026-04-29 00:00 | 18.43391 | -66.11204 | 1817 ft | 187 kts | 90° |
| 2026-04-29 00:00 | 18.43385 | -66.09888 | 1578 ft | 173 kts | 90° |
| 2026-04-29 00:01 | 18.43379 | -66.08678 | 1347 ft | 158 kts | 90° |
| 2026-04-29 00:01 | 18.43374 | -66.07552 | 1124 ft | 146 kts | 90° |
| 2026-04-29 00:01 | 18.43371 | -66.06530 | 931 ft | 134 kts | 90° |
| 2026-04-29 00:01 | 18.43368 | -66.05582 | 768 ft | 127 kts | 89° |
| 2026-04-29 00:02 | 18.43365 | -66.04658 | 621 ft | 126 kts | 89° |
| 2026-04-29 00:02 | 18.43363 | -66.03732 | 465 ft | 126 kts | 90° |
| 2026-04-29 00:02 | 18.43358 | -66.02811 | 301 ft | 125 kts | 90° |
| 2026-04-29 00:02 | 18.43353 | -66.01906 | 163 ft | 124 kts | 90° |
| 2026-04-29 00:03 | 18.43354 | -66.00996 | 17 ft | 120 kts | 90° |
| 2026-04-29 00:03 | 18.43354 | -66.00282 | 17 ft | 61 kts | 91° |
| 2026-04-29 00:03 | 18.43366 | -66.00017 | 17 ft | 31 kts | 71° |
| 2026-04-29 00:03 | 18.43442 | -65.99901 | 17 ft | 11 kts | 338° |
| 2026-04-29 00:04 | 18.43464 | -65.99984 | 19 ft | 11 kts | 270° |
| 2026-04-29 00:04 | 18.43464 | -66.00070 | 19 ft | 12 kts | 270° |
| 2026-04-29 00:04 | 18.43464 | -66.00170 | 19 ft | 14 kts | 270° |
| 2026-04-29 00:04 | 18.43469 | -66.00272 | 19 ft | 11 kts | 295° |
| 2026-04-29 00:05 | 18.43541 | -66.00298 | 21 ft | 11 kts | 336° |
| 2026-04-29 00:05 | 18.43582 | -66.00327 | 21 ft | 4 kts | 346° |
| 2026-04-29 00:05 | 18.43610 | -66.00336 | 22 ft | 2 kts | 343° |
| 2026-04-29 00:05 | 18.43615 | -66.00337 | 22 ft | 0 kts | 343° |
| 2026-04-29 00:32 | 18.43610 | -66.00336 | 22 ft | 2 kts | 343° |